Time;durP1;ratioP1;P1;durP2;ratioP2;P2;SDS_P1;SDS_P2;PMS_P1;PMS_P2;Temp;Humidity;BMP_temperature;BMP_pressure;BME280_temperature;BME280_humidity;BME280_pressure;Samples;Min_cycle;Max_cycle;Signal;HPM_P1;HPM_P2
2023/01/25 00:00:27;;;;;;;;;;;;;;;;;;5090231;28;20401;-65
2023/01/25 00:02:53;;;;;;;;;;;;;;;;;;5090367;28;19916;-65
2023/01/25 00:05:19;;;;;;;;;;;;;;;;;;5089746;28;19916;-64
2023/01/25 00:07:45;;;;;;;;;;;;;;;;;;5089810;28;20014;-65
2023/01/25 00:10:11;;;;;;;;;;;;;;;;;;5090289;28;19912;-64
2023/01/25 00:12:36;;;;;;;;;;;;;;;;;;5089743;28;20771;-65
2023/01/25 00:15:02;;;;;;;;;;;;;;;;;;5090051;28;19966;-64
2023/01/25 00:17:28;;;;;;;;;;;;;;;;;;5089736;28;20459;-63
2023/01/25 00:19:54;;;;;;;;;;;;;;;;;;5089425;28;19919;-64
2023/01/25 00:22:20;;;;;;;;;;;;;;;;;;5071898;28;19920;-65
2023/01/25 00:24:46;;;;;;;;;;;;;;;;;;5089777;28;19908;-65
2023/01/25 00:27:12;;;;;;;;;;;;;;;;;;5089737;28;20581;-64
2023/01/25 00:29:38;;;;;;;;;;;;;;;;;;5089418;28;19920;-64
2023/01/25 00:32:04;;;;;;;;;;;;;;;;;;5089711;28;19912;-64
2023/01/25 00:34:29;;;;;;;;;;;;;;;;;;5088521;28;20557;-65
2023/01/25 00:36:56;;;;;;;;;;;;;;;;;;5088793;28;19912;-65
2023/01/25 00:39:21;;;;;;;;;;;;;;;;;;5089690;28;19912;-66
2023/01/25 00:41:47;;;;;;;;;;;;;;;;;;5088971;28;19916;-65
2023/01/25 00:44:13;;;;;;;;;;;;;;;;;;5089146;28;19967;-63
2023/01/25 00:46:39;;;;;;;;;;;;;;;;;;5089337;28;19912;-64
2023/01/25 00:49:05;;;;;;;;;;;;;;;;;;5089041;28;19912;-64
2023/01/25 00:51:31;;;;;;;;;;;;;;;;;;5089761;28;20024;-65
2023/01/25 00:53:57;;;;;;;;;;;;;;;;;;5088984;28;19908;-64
2023/01/25 00:56:23;;;;;;;;;;;;;;;;;;5089399;28;19951;-64
2023/01/25 00:58:48;;;;;;;;;;;;;;;;;;5089162;28;19927;-64
2023/01/25 01:01:14;;;;;;;;;;;;;;;;;;5089480;28;19920;-64
2023/01/25 01:03:40;;;;;;;;;;;;;;;;;;5089559;28;19908;-65
2023/01/25 01:06:06;;;;;;;;;;;;;;;;;;5089015;28;20338;-65
2023/01/25 01:08:32;;;;;;;;;;;;;;;;;;5088954;28;20011;-64
2023/01/25 01:10:58;;;;;;;;;;;;;;;;;;5088729;28;19912;-65
2023/01/25 01:13:24;;;;;;;;;;;;;;;;;;5089208;28;19908;-65
2023/01/25 01:15:50;;;;;;;;;;;;;;;;;;5088512;28;20041;-64
2023/01/25 01:18:16;;;;;;;;;;;;;;;;;;5089232;28;19923;-62
2023/01/25 01:20:42;;;;;;;;;;;;;;;;;;5088789;28;19920;-62
2023/01/25 01:23:08;;;;;;;;;;;;;;;;;;5088700;28;19915;-63
2023/01/25 01:25:34;;;;;;;;;;;;;;;;;;5088744;28;19915;-62
2023/01/25 01:28:00;;;;;;;;;;;;;;;;;;5088955;28;20455;-62
2023/01/25 01:30:25;;;;;;;;;;;;;;;;;;5089187;28;19908;-65
2023/01/25 01:32:51;;;;;;;;;;;;;;;;;;5088907;28;19916;-68
2023/01/25 01:35:17;;;;;;;;;;;;;;;;;;5088544;28;20012;-66
2023/01/25 01:37:43;;;;;;;;;;;;;;;;;;5088960;28;19912;-63
2023/01/25 01:40:09;;;;;;;;;;;;;;;;;;5088107;28;19908;-64
2023/01/25 01:42:35;;;;;;;;;;;;;;;;;;5089008;28;20006;-64
2023/01/25 01:45:01;;;;;;;;;;;;;;;;;;5081815;28;19908;-64
2023/01/25 01:47:27;;;;;;;;;;;;;;;;;;5088776;28;19919;-62
2023/01/25 01:49:53;;;;;;;;;;;;;;;;;;5088244;28;19912;-64
2023/01/25 01:52:19;;;;;;;;;;;;;;;;;;5089021;28;19919;-64
2023/01/25 01:54:44;;;;;;;;;;;;;;;;;;5069851;28;19912;-65
2023/01/25 01:57:10;;;;;;;;;;;;;;;;;;5088046;28;20319;-64
2023/01/25 01:59:36;;;;;;;;;;;;;;;;;;5091876;28;19909;-65
2023/01/25 02:02:02;;;;;;;;;;;;;;;;;;5091955;28;19924;-65
2023/01/25 02:04:28;;;;;;;;;;;;;;;;;;5092017;28;20589;-64
2023/01/25 02:06:54;;;;;;;;;;;;;;;;;;5092354;28;19912;-65
2023/01/25 02:09:20;;;;;;;;;;;;;;;;;;5091770;28;20358;-64
2023/01/25 02:11:46;;;;;;;;;;;;;;;;;;5091442;28;20003;-63
2023/01/25 02:14:11;;;;;;;;;;;;;;;;;;5092096;28;20288;-64
2023/01/25 02:16:37;;;;;;;;;;;;;;;;;;5091935;28;19938;-64
2023/01/25 02:19:03;;;;;;;;;;;;;;;;;;5092126;28;20444;-64
2023/01/25 02:21:29;;;;;;;;;;;;;;;;;;5091514;28;19927;-65
2023/01/25 02:23:55;;;;;;;;;;;;;;;;;;5091531;28;19927;-63
2023/01/25 02:26:21;;;;;;;;;;;;;;;;;;5091402;28;19951;-64
2023/01/25 02:28:47;;;;;;;;;;;;;;;;;;5091381;28;19999;-63
2023/01/25 02:31:13;;;;;;;;;;;;;;;;;;5091650;28;19908;-63
2023/01/25 02:33:39;;;;;;;;;;;;;;;;;;5091595;28;19916;-64
2023/01/25 02:36:04;;;;;;;;;;;;;;;;;;5091647;28;20414;-63
2023/01/25 02:38:30;;;;;;;;;;;;;;;;;;5091535;28;20007;-63
2023/01/25 02:40:56;;;;;;;;;;;;;;;;;;5091465;28;19912;-64
2023/01/25 02:43:22;;;;;;;;;;;;;;;;;;5091280;28;19912;-62
2023/01/25 02:45:48;;;;;;;;;;;;;;;;;;5084697;28;19908;-63
2023/01/25 02:48:14;;;;;;;;;;;;;;;;;;5091866;28;20276;-64
2023/01/25 02:50:40;;;;;;;;;;;;;;;;;;5091583;28;19912;-63
2023/01/25 02:53:06;;;;;;;;;;;;;;;;;;5090797;28;20796;-63
2023/01/25 02:55:32;;;;;;;;;;;;;;;;;;5090982;28;19967;-64
2023/01/25 02:57:57;;;;;;;;;;;;;;;;;;5091047;28;20303;-61
2023/01/25 03:00:23;;;;;;;;;;;;;;;;;;5091104;28;19908;-62
2023/01/25 03:02:49;;;;;;;;;;;;;;;;;;5091112;28;19912;-60
2023/01/25 03:05:15;;;;;;;;;;;;;;;;;;5090820;28;19912;-63
2023/01/25 03:07:41;;;;;;;;;;;;;;;;;;5090701;28;20411;-63
2023/01/25 03:10:07;;;;;;;;;;;;;;;;;;5090104;28;19912;-64
2023/01/25 03:12:33;;;;;;;;;;;;;;;;;;5090822;28;19908;-63
2023/01/25 03:14:59;;;;;;;;;;;;;;;;;;5090441;28;20340;-63
2023/01/25 03:17:25;;;;;;;;;;;;;;;;;;5091157;28;20388;-63
2023/01/25 03:19:52;;;;;;;;;;;;;;;;;;5090728;28;19912;-63
2023/01/25 03:22:18;;;;;;;;;;;;;;;;;;5090035;28;20277;-62
2023/01/25 03:24:44;;;;;;;;;;;;;;;;;;5090782;28;19915;-63
2023/01/25 03:27:10;;;;;;;;;;;;;;;;;;5090905;28;19909;-62
2023/01/25 03:29:36;;;;;;;;;;;;;;;;;;5090583;28;19916;-62
2023/01/25 03:32:03;;;;;;;;;;;;;;;;;;5089899;28;20071;-63
2023/01/25 03:34:29;;;;;;;;;;;;;;;;;;5090538;28;19912;-62
2023/01/25 03:36:57;;;;;;;;;;;;;;;;;;5089718;28;20169;-62
2023/01/25 03:39:23;;;;;;;;;;;;;;;;;;5090651;28;20330;-62
2023/01/25 03:41:49;;;;;;;;;;;;;;;;;;5089746;28;20038;-63
2023/01/25 03:44:15;;;;;;;;;;;;;;;;;;5090215;28;20320;-63
2023/01/25 03:46:41;;;;;;;;;;;;;;;;;;5090083;28;19951;-63
2023/01/25 03:49:07;;;;;;;;;;;;;;;;;;5090348;28;19916;-62
2023/01/25 03:51:33;;;;;;;;;;;;;;;;;;5090243;28;19916;-63
2023/01/25 03:53:59;;;;;;;;;;;;;;;;;;5090669;28;19919;-62
2023/01/25 03:56:24;;;;;;;;;;;;;;;;;;5089282;28;19908;-63
2023/01/25 03:58:50;;;;;;;;;;;;;;;;;;5090346;28;19908;-63
2023/01/25 04:01:16;;;;;;;;;;;;;;;;;;5090218;28;19942;-62
2023/01/25 04:03:42;;;;;;;;;;;;;;;;;;5089407;28;19912;-62
2023/01/25 04:06:08;;;;;;;;;;;;;;;;;;5090315;28;19919;-63
2023/01/25 04:08:34;;;;;;;;;;;;;;;;;;5089643;28;20011;-62
2023/01/25 04:11:00;;;;;;;;;;;;;;;;;;5071992;28;20391;-62
2023/01/25 04:13:26;;;;;;;;;;;;;;;;;;5090151;28;20357;-62
2023/01/25 04:15:52;;;;;;;;;;;;;;;;;;5090153;28;19922;-62
2023/01/25 04:18:18;;;;;;;;;;;;;;;;;;5089542;28;20379;-62
2023/01/25 04:20:43;;;;;;;;;;;;;;;;;;5089695;28;20376;-62
2023/01/25 04:23:09;;;;;;;;;;;;;;;;;;5089571;28;19956;-62
2023/01/25 04:25:35;;;;;;;;;;;;;;;;;;5089616;28;20646;-62
2023/01/25 04:28:01;;;;;;;;;;;;;;;;;;5089591;28;19991;-61
2023/01/25 04:30:27;;;;;;;;;;;;;;;;;;5089526;28;19990;-61
2023/01/25 04:32:53;;;;;;;;;;;;;;;;;;5088996;28;20284;-62
2023/01/25 04:35:19;;;;;;;;;;;;;;;;;;5089888;28;19915;-63
2023/01/25 04:37:45;;;;;;;;;;;;;;;;;;5089160;28;20359;-64
2023/01/25 04:40:11;;;;;;;;;;;;;;;;;;5071237;28;19913;-64
2023/01/25 04:42:37;;;;;;;;;;;;;;;;;;5089311;28;19920;-63
2023/01/25 04:45:03;;;;;;;;;;;;;;;;;;5089613;28;19950;-65
2023/01/25 04:47:28;;;;;;;;;;;;;;;;;;5089160;28;20291;-63
2023/01/25 04:49:54;;;;;;;;;;;;;;;;;;5088975;28;19908;-64
2023/01/25 04:52:20;;;;;;;;;;;;;;;;;;5088901;28;20401;-63
2023/01/25 04:54:46;;;;;;;;;;;;;;;;;;5082757;28;19944;-63
2023/01/25 04:57:12;;;;;;;;;;;;;;;;;;5088802;28;19912;-63
2023/01/25 04:59:38;;;;;;;;;;;;;;;;;;5070736;28;19916;-63
2023/01/25 05:02:04;;;;;;;;;;;;;;;;;;5089193;28;20010;-63
2023/01/25 05:04:30;;;;;;;;;;;;;;;;;;5089084;28;19912;-64
2023/01/25 05:06:56;;;;;;;;;;;;;;;;;;5088724;28;19908;-63
2023/01/25 05:09:22;;;;;;;;;;;;;;;;;;5088551;28;20026;-64
2023/01/25 05:11:47;;;;;;;;;;;;;;;;;;5088752;28;19916;-63
2023/01/25 05:14:13;;;;;;;;;;;;;;;;;;5088787;28;19912;-63
2023/01/25 05:16:39;;;;;;;;;;;;;;;;;;5088644;28;19962;-62
2023/01/25 05:19:05;;;;;;;;;;;;;;;;;;5088933;28;19908;-63
2023/01/25 05:24:16;;;;;;;;;;;;;;;;;;5088837;28;19969;-64
2023/01/25 05:27:00;;;;;;;;;;;;;;;;;;5088741;28;19912;-63
2023/01/25 05:29:25;;;;;;;;;;;;;;;;;;5088775;28;19912;-64
2023/01/25 05:31:51;;;;;;;;;;;;;;;;;;5088360;28;20327;-63
2023/01/25 05:34:17;;;;;;;;;;;;;;;;;;5091788;28;19954;-64
2023/01/25 05:36:43;;;;;;;;;;;;;;;;;;5092461;28;20386;-63
2023/01/25 05:39:09;;;;;;;;;;;;;;;;;;5093040;28;19938;-63
2023/01/25 05:41:35;;;;;;;;;;;;;;;;;;5092893;28;20473;-64
2023/01/25 05:44:01;;;;;;;;;;;;;;;;;;5092658;28;19908;-64
2023/01/25 05:46:27;;;;;;;;;;;;;;;;;;5092329;28;20372;-64
2023/01/25 05:48:52;;;;;;;;;;;;;;;;;;5092559;28;19919;-63
2023/01/25 05:51:18;;;;;;;;;;;;;;;;;;5092730;28;20271;-65
2023/01/25 05:53:44;;;;;;;;;;;;;;;;;;5092567;28;20602;-64
2023/01/25 05:56:10;;;;;;;;;;;;;;;;;;5092568;28;19916;-64
2023/01/25 05:58:36;;;;;;;;;;;;;;;;;;5092302;28;19920;-64
2023/01/25 06:01:02;;;;;;;;;;;;;;;;;;5091963;28;19948;-61
2023/01/25 06:03:28;;;;;;;;;;;;;;;;;;5092879;28;19916;-64
2023/01/25 06:05:54;;;;;;;;;;;;;;;;;;5092191;28;19908;-63
2023/01/25 06:08:20;;;;;;;;;;;;;;;;;;5092415;28;19919;-63
2023/01/25 06:10:46;;;;;;;;;;;;;;;;;;5091967;28;19935;-63
2023/01/25 06:13:12;;;;;;;;;;;;;;;;;;5092542;28;19912;-64
2023/01/25 06:15:38;;;;;;;;;;;;;;;;;;5073799;28;19916;-64
2023/01/25 06:18:04;;;;;;;;;;;;;;;;;;5091945;28;19912;-65
2023/01/25 06:20:29;;;;;;;;;;;;;;;;;;5091688;28;19908;-65
2023/01/25 06:22:55;;;;;;;;;;;;;;;;;;5092195;28;19908;-65
2023/01/25 06:25:21;;;;;;;;;;;;;;;;;;5092090;28;19912;-62
2023/01/25 06:27:47;;;;;;;;;;;;;;;;;;5092196;28;19938;-65
2023/01/25 06:30:13;;;;;;;;;;;;;;;;;;5092126;28;20417;-64
2023/01/25 06:32:39;;;;;;;;;;;;;;;;;;5091960;28;19908;-65
2023/01/25 06:35:05;;;;;;;;;;;;;;;;;;5091843;28;20287;-64
2023/01/25 06:37:31;;;;;;;;;;;;;;;;;;5091600;28;19985;-66
2023/01/25 06:39:57;;;;;;;;;;;;;;;;;;5091758;28;19911;-65
2023/01/25 06:42:22;;;;;;;;;;;;;;;;;;5085122;28;20372;-64
2023/01/25 06:44:48;;;;;;;;;;;;;;;;;;5091403;28;19919;-64
2023/01/25 06:47:14;;;;;;;;;;;;;;;;;;5091626;28;20003;-65
2023/01/25 06:49:40;;;;;;;;;;;;;;;;;;5090740;28;20365;-65
2023/01/25 06:52:06;;;;;;;;;;;;;;;;;;5091393;28;19908;-65
2023/01/25 06:54:32;;;;;;;;;;;;;;;;;;5091291;28;19908;-65
2023/01/25 06:56:58;;;;;;;;;;;;;;;;;;5091213;28;20007;-65
2023/01/25 06:59:24;;;;;;;;;;;;;;;;;;5091035;28;20477;-66
2023/01/25 07:01:50;;;;;;;;;;;;;;;;;;5091163;28;20019;-65
2023/01/25 07:04:15;;;;;;;;;;;;;;;;;;5090943;28;19998;-64
2023/01/25 07:06:41;;;;;;;;;;;;;;;;;;5090798;28;19954;-65
2023/01/25 07:09:07;;;;;;;;;;;;;;;;;;5090849;28;19926;-64
2023/01/25 07:11:33;;;;;;;;;;;;;;;;;;5090780;28;19912;-64
2023/01/25 07:13:59;;;;;;;;;;;;;;;;;;5090192;28;20491;-64
2023/01/25 07:16:25;;;;;;;;;;;;;;;;;;5090525;28;19919;-64
2023/01/25 07:18:51;;;;;;;;;;;;;;;;;;5090370;28;19919;-65
2023/01/25 07:21:17;;;;;;;;;;;;;;;;;;5090261;28;20018;-64
2023/01/25 07:23:43;;;;;;;;;;;;;;;;;;5090613;28;20288;-65
2023/01/25 07:26:09;;;;;;;;;;;;;;;;;;5090424;28;19912;-65
2023/01/25 07:28:35;;;;;;;;;;;;;;;;;;5090211;28;20376;-64
2023/01/25 07:31:01;;;;;;;;;;;;;;;;;;5090846;28;19913;-66
2023/01/25 07:33:27;;;;;;;;;;;;;;;;;;5090540;28;19915;-65
2023/01/25 07:35:53;;;;;;;;;;;;;;;;;;5089921;28;20360;-66
2023/01/25 07:38:18;;;;;;;;;;;;;;;;;;5090508;28;19990;-65
2023/01/25 07:40:44;;;;;;;;;;;;;;;;;;5090215;28;20386;-65
2023/01/25 07:43:10;;;;;;;;;;;;;;;;;;5083684;28;19918;-64
2023/01/25 07:45:36;;;;;;;;;;;;;;;;;;5090235;28;20384;-64
2023/01/25 07:48:02;;;;;;;;;;;;;;;;;;5090413;28;19916;-65
2023/01/25 07:50:28;;;;;;;;;;;;;;;;;;5090034;28;19947;-65
2023/01/25 07:52:54;;;;;;;;;;;;;;;;;;5090152;28;20292;-64
2023/01/25 07:55:20;;;;;;;;;;;;;;;;;;5089616;28;20349;-64
2023/01/25 07:57:46;;;;;;;;;;;;;;;;;;5089956;28;19919;-64
2023/01/25 08:00:12;;;;;;;;;;;;;;;;;;5090304;28;19912;-64
2023/01/25 08:02:38;;;;;;;;;;;;;;;;;;5089685;28;20457;-64
2023/01/25 08:05:05;;;;;;;;;;;;;;;;;;5090043;28;19908;-64
2023/01/25 08:07:31;;;;;;;;;;;;;;;;;;5089787;28;19922;-64
2023/01/25 08:09:56;;;;;;;;;;;;;;;;;;5089111;28;19937;-61
2023/01/25 08:12:24;;;;;;;;;;;;;;;;;;5088562;28;19912;-65
2023/01/25 08:14:50;;;;;;;;;;;;;;;;;;5085015;28;19912;-61
2023/01/25 08:17:16;;;;;;;;;;;;;;;;;;5089485;28;19908;-62
2023/01/25 08:19:42;;;;;;;;;;;;;;;;;;5080956;28;20538;-63
2023/01/25 08:22:08;;;;;;;;;;;;;;;;;;5082440;28;19967;-61
2023/01/25 08:24:34;;;;;;;;;;;;;;;;;;5089230;28;19915;-61
2023/01/25 08:27:00;;;;;;;;;;;;;;;;;;5071210;28;19908;-63
2023/01/25 08:29:26;;;;;;;;;;;;;;;;;;5088963;28;19973;-61
2023/01/25 08:31:52;;;;;;;;;;;;;;;;;;5089034;28;19912;-60
2023/01/25 08:34:18;;;;;;;;;;;;;;;;;;5088448;28;19919;-62
2023/01/25 08:36:44;;;;;;;;;;;;;;;;;;5088983;28;19912;-61
2023/01/25 08:39:10;;;;;;;;;;;;;;;;;;5088152;28;20408;-62
2023/01/25 08:41:36;;;;;;;;;;;;;;;;;;5087158;28;19921;-61
2023/01/25 08:44:02;;;;;;;;;;;;;;;;;;5089026;28;19969;-62
2023/01/25 08:46:28;;;;;;;;;;;;;;;;;;5088732;28;19912;-61
2023/01/25 08:48:54;;;;;;;;;;;;;;;;;;5088959;28;20333;-62
2023/01/25 08:51:20;;;;;;;;;;;;;;;;;;5088951;28;19919;-62
2023/01/25 08:53:46;;;;;;;;;;;;;;;;;;5087277;28;20259;-62
2023/01/25 08:56:11;;;;;;;;;;;;;;;;;;5077531;28;20019;-62
2023/01/25 08:58:37;;;;;;;;;;;;;;;;;;5077222;28;19923;-60
2023/01/25 09:01:03;;;;;;;;;;;;;;;;;;5074408;28;19921;-62
2023/01/25 09:03:29;;;;;;;;;;;;;;;;;;5078280;28;21495;-61
2023/01/25 09:05:55;;;;;;;;;;;;;;;;;;5076798;28;19916;-62
2023/01/25 09:08:21;;;;;;;;;;;;;;;;;;5076914;28;20344;-63
2023/01/25 09:10:47;;;;;;;;;;;;;;;;;;5073290;28;19969;-62
2023/01/25 09:13:13;;;;;;;;;;;;;;;;;;5081566;28;20009;-61
2023/01/25 09:15:39;;;;;;;;;;;;;;;;;;5073443;28;20003;-61
2023/01/25 09:18:05;;;;;;;;;;;;;;;;;;5079055;28;20429;-62
2023/01/25 09:20:30;;;;;;;;;;;;;;;;;;5072922;28;19927;-61
2023/01/25 09:22:56;;;;;;;;;;;;;;;;;;5078768;28;19963;-62
2023/01/25 09:25:22;;;;;;;;;;;;;;;;;;5082444;28;19961;-63
2023/01/25 09:27:49;;;;;;;;;;;;;;;;;;5081500;28;20292;-62
2023/01/25 09:30:15;;;;;;;;;;;;;;;;;;5075835;28;19919;-62
2023/01/25 09:32:41;;;;;;;;;;;;;;;;;;5077578;28;19916;-61
2023/01/25 09:35:07;;;;;;;;;;;;;;;;;;5076506;28;20464;-63
2023/01/25 09:37:32;;;;;;;;;;;;;;;;;;5077173;28;19964;-61
2023/01/25 09:39:59;;;;;;;;;;;;;;;;;;5081942;28;19923;-62
2023/01/25 09:42:25;;;;;;;;;;;;;;;;;;5075346;28;20109;-62
2023/01/25 09:44:51;;;;;;;;;;;;;;;;;;5080498;28;20600;-62
2023/01/25 09:47:17;;;;;;;;;;;;;;;;;;5082237;28;20380;-62
2023/01/25 09:49:43;;;;;;;;;;;;;;;;;;5079143;28;19919;-62
2023/01/25 09:52:09;;;;;;;;;;;;;;;;;;5074357;28;20061;-62
2023/01/25 09:54:34;;;;;;;;;;;;;;;;;;5078315;28;20390;-62
2023/01/25 09:57:00;;;;;;;;;;;;;;;;;;5073491;28;19919;-64
2023/01/25 09:59:29;;;;;;;;;;;;;;;;;;5081442;28;20888;-63
2023/01/25 10:01:55;;;;;;;;;;;;;;;;;;5073849;28;19955;-63
2023/01/25 10:04:21;;;;;;;;;;;;;;;;;;5077135;28;20020;-63
2023/01/25 10:06:47;;;;;;;;;;;;;;;;;;5075716;28;20436;-62
2023/01/25 10:09:13;;;;;;;;;;;;;;;;;;5076914;28;19924;-64
2023/01/25 10:11:38;;;;;;;;;;;;;;;;;;5076948;28;20031;-62
2023/01/25 10:14:04;;;;;;;;;;;;;;;;;;5081214;28;20277;-63
2023/01/25 10:16:30;;;;;;;;;;;;;;;;;;5075716;28;19927;-63
2023/01/25 10:18:56;;;;;;;;;;;;;;;;;;5079210;28;19916;-62
2023/01/25 10:21:22;;;;;;;;;;;;;;;;;;5081423;28;19920;-62
2023/01/25 10:23:48;;;;;;;;;;;;;;;;;;5079413;28;19921;-62
2023/01/25 10:26:14;;;;;;;;;;;;;;;;;;5080004;28;19923;-63
2023/01/25 10:28:40;;;;;;;;;;;;;;;;;;5079182;28;19912;-62
2023/01/25 10:31:06;;;;;;;;;;;;;;;;;;5079379;28;19916;-63
2023/01/25 10:33:32;;;;;;;;;;;;;;;;;;5082634;28;19919;-63
2023/01/25 10:35:58;;;;;;;;;;;;;;;;;;5080448;28;20038;-64
2023/01/25 10:38:24;;;;;;;;;;;;;;;;;;5074930;28;19920;-64
2023/01/25 10:40:50;;;;;;;;;;;;;;;;;;5084364;28;19912;-63
2023/01/25 10:43:16;;;;;;;;;;;;;;;;;;5083464;28;20088;-63
2023/01/25 10:45:43;;;;;;;;;;;;;;;;;;5083070;28;19923;-62
2023/01/25 10:48:09;;;;;;;;;;;;;;;;;;5083895;28;19999;-62
2023/01/25 10:50:35;;;;;;;;;;;;;;;;;;5080732;28;20061;-64
2023/01/25 10:53:01;;;;;;;;;;;;;;;;;;5082573;28;19916;-61
2023/01/25 10:55:27;;;;;;;;;;;;;;;;;;5076273;28;19916;-62
2023/01/25 10:57:53;;;;;;;;;;;;;;;;;;5084432;28;19978;-62
2023/01/25 11:00:19;;;;;;;;;;;;;;;;;;5077219;28;20407;-63
2023/01/25 11:02:45;;;;;;;;;;;;;;;;;;5082384;28;19928;-62
2023/01/25 11:05:11;;;;;;;;;;;;;;;;;;5062011;28;19922;-62
2023/01/25 11:07:37;;;;;;;;;;;;;;;;;;5080575;28;19913;-62
2023/01/25 11:10:03;;;;;;;;;;;;;;;;;;5076391;28;19916;-62
2023/01/25 11:12:29;;;;;;;;;;;;;;;;;;5080554;28;19951;-60
2023/01/25 11:14:55;;;;;;;;;;;;;;;;;;5087507;28;19919;-62
2023/01/25 11:17:21;;;;;;;;;;;;;;;;;;5084726;28;20005;-62
2023/01/25 11:19:47;;;;;;;;;;;;;;;;;;5078273;28;19923;-62
2023/01/25 11:22:12;;;;;;;;;;;;;;;;;;5078762;28;19925;-60
2023/01/25 11:24:38;;;;;;;;;;;;;;;;;;5081225;28;20381;-62
2023/01/25 11:27:04;;;;;;;;;;;;;;;;;;5074442;28;19916;-63
2023/01/25 11:29:30;;;;;;;;;;;;;;;;;;5079477;28;19969;-62
2023/01/25 11:31:57;;;;;;;;;;;;;;;;;;5078534;28;19912;-62
2023/01/25 11:34:23;;;;;;;;;;;;;;;;;;5079384;28;20006;-63
2023/01/25 11:36:49;;;;;;;;;;;;;;;;;;5081598;28;20011;-61
2023/01/25 11:39:15;;;;;;;;;;;;;;;;;;5078811;28;20300;-62
2023/01/25 11:41:41;;;;;;;;;;;;;;;;;;5079284;28;19951;-61
2023/01/25 11:44:07;;;;;;;;;;;;;;;;;;5081649;28;20514;-62
2023/01/25 11:46:33;;;;;;;;;;;;;;;;;;5082468;28;19919;-62
2023/01/25 11:48:59;;;;;;;;;;;;;;;;;;5077469;28;19920;-61
2023/01/25 11:51:25;;;;;;;;;;;;;;;;;;5079718;28;20819;-63
2023/01/25 11:53:51;;;;;;;;;;;;;;;;;;5073580;28;20360;-62
2023/01/25 11:56:17;;;;;;;;;;;;;;;;;;5082965;28;19916;-62
2023/01/25 11:58:42;;;;;;;;;;;;;;;;;;5079313;28;20650;-61
2023/01/25 12:01:08;;;;;;;;;;;;;;;;;;5082602;28;19947;-62
2023/01/25 12:03:35;;;;;;;;;;;;;;;;;;5077578;28;20387;-62
2023/01/25 12:06:01;;;;;;;;;;;;;;;;;;5076856;28;19920;-61
2023/01/25 12:08:26;;;;;;;;;;;;;;;;;;5077669;28;19920;-62
2023/01/25 12:10:52;;;;;;;;;;;;;;;;;;5079794;28;20360;-61
2023/01/25 12:13:18;;;;;;;;;;;;;;;;;;5076829;28;19996;-62
2023/01/25 12:15:44;;;;;;;;;;;;;;;;;;5075855;28;19995;-62
2023/01/25 12:18:10;;;;;;;;;;;;;;;;;;5076211;28;19958;-61
2023/01/25 12:20:36;;;;;;;;;;;;;;;;;;5075538;28;19951;-62
2023/01/25 12:23:02;;;;;;;;;;;;;;;;;;5077913;28;19973;-61
2023/01/25 12:25:28;;;;;;;;;;;;;;;;;;5077571;28;19924;-62
2023/01/25 12:27:54;;;;;;;;;;;;;;;;;;5062692;28;20007;-61
2023/01/25 12:30:20;;;;;;;;;;;;;;;;;;5072549;28;19974;-61
2023/01/25 12:32:46;;;;;;;;;;;;;;;;;;5079700;28;19916;-62
2023/01/25 12:35:11;;;;;;;;;;;;;;;;;;5073205;28;19939;-60
2023/01/25 12:37:37;;;;;;;;;;;;;;;;;;5078040;28;20395;-62
2023/01/25 12:40:03;;;;;;;;;;;;;;;;;;5072771;28;19916;-60
2023/01/25 12:42:29;;;;;;;;;;;;;;;;;;5080061;28;20026;-62
2023/01/25 12:44:55;;;;;;;;;;;;;;;;;;5079070;28;20399;-62
2023/01/25 12:47:21;;;;;;;;;;;;;;;;;;5081116;28;19947;-62
2023/01/25 12:49:47;;;;;;;;;;;;;;;;;;5075559;28;19959;-63
2023/01/25 12:52:13;;;;;;;;;;;;;;;;;;5078888;28;20506;-62
2023/01/25 12:54:39;;;;;;;;;;;;;;;;;;5060980;28;19916;-62
2023/01/25 12:57:05;;;;;;;;;;;;;;;;;;5078801;28;20098;-62
2023/01/25 12:59:30;;;;;;;;;;;;;;;;;;5074904;28;19924;-61
2023/01/25 13:01:56;;;;;;;;;;;;;;;;;;5075043;28;20450;-63
2023/01/25 13:04:22;;;;;;;;;;;;;;;;;;5060700;28;19974;-60
2023/01/25 13:06:48;;;;;;;;;;;;;;;;;;5074063;28;19912;-63
2023/01/25 13:09:14;;;;;;;;;;;;;;;;;;5079403;28;19925;-60
2023/01/25 13:11:40;;;;;;;;;;;;;;;;;;5077220;28;20403;-62
2023/01/25 13:14:06;;;;;;;;;;;;;;;;;;5078968;28;19920;-62
2023/01/25 13:16:32;;;;;;;;;;;;;;;;;;5076987;28;19968;-62
2023/01/25 13:18:58;;;;;;;;;;;;;;;;;;5081209;28;19920;-60
2023/01/25 13:21:24;;;;;;;;;;;;;;;;;;5072932;28;19920;-61
2023/01/25 13:23:50;;;;;;;;;;;;;;;;;;5075626;28;20357;-62
2023/01/25 13:26:16;;;;;;;;;;;;;;;;;;5076545;28;19913;-62
2023/01/25 13:28:44;;;;;;;;;;;;;;;;;;5059828;28;20304;-61
2023/01/25 13:31:10;;;;;;;;;;;;;;;;;;5074684;28;19965;-62
2023/01/25 13:33:36;;;;;;;;;;;;;;;;;;5079579;28;19917;-62
2023/01/25 13:36:02;;;;;;;;;;;;;;;;;;5073320;28;20010;-62
2023/01/25 13:38:28;;;;;;;;;;;;;;;;;;5081017;28;19916;-62
2023/01/25 13:40:54;;;;;;;;;;;;;;;;;;5076771;28;20915;-62
2023/01/25 13:43:20;;;;;;;;;;;;;;;;;;5076618;28;19920;-62
2023/01/25 13:45:46;;;;;;;;;;;;;;;;;;5077126;28;20284;-62
2023/01/25 13:48:11;;;;;;;;;;;;;;;;;;5075284;28;20023;-61
2023/01/25 13:50:38;;;;;;;;;;;;;;;;;;5083966;28;19916;-60
2023/01/25 13:53:04;;;;;;;;;;;;;;;;;;5081231;28;19919;-60
2023/01/25 13:55:30;;;;;;;;;;;;;;;;;;5086813;28;19916;-62
2023/01/25 13:57:56;;;;;;;;;;;;;;;;;;5077806;28;19919;-62
2023/01/25 14:00:22;;;;;;;;;;;;;;;;;;5083206;28;20292;-63
2023/01/25 14:02:48;;;;;;;;;;;;;;;;;;5081558;28;19989;-61
2023/01/25 14:05:14;;;;;;;;;;;;;;;;;;5084573;28;19927;-63
2023/01/25 14:07:40;;;;;;;;;;;;;;;;;;5076423;28;19928;-63
2023/01/25 14:10:06;;;;;;;;;;;;;;;;;;5080371;28;19977;-62
2023/01/25 14:12:32;;;;;;;;;;;;;;;;;;5080195;28;19912;-62
2023/01/25 14:14:57;;;;;;;;;;;;;;;;;;5083738;28;19912;-63
2023/01/25 14:17:23;;;;;;;;;;;;;;;;;;5077216;28;19923;-63
2023/01/25 14:19:49;;;;;;;;;;;;;;;;;;5078690;28;20017;-63
2023/01/25 14:22:15;;;;;;;;;;;;;;;;;;5078893;28;20287;-62
2023/01/25 14:24:41;;;;;;;;;;;;;;;;;;5082567;28;19958;-63
2023/01/25 14:27:07;;;;;;;;;;;;;;;;;;5081455;28;19927;-63
2023/01/25 14:29:34;;;;;;;;;;;;;;;;;;5079539;28;19912;-62
2023/01/25 14:32:00;;;;;;;;;;;;;;;;;;5082270;28;20742;-62
2023/01/25 14:34:26;;;;;;;;;;;;;;;;;;5074638;28;19916;-61
2023/01/25 14:36:51;;;;;;;;;;;;;;;;;;5084025;28;19946;-62
2023/01/25 14:39:17;;;;;;;;;;;;;;;;;;5075362;28;20006;-60
2023/01/25 14:41:45;;;;;;;;;;;;;;;;;;5078965;28;19946;-61
2023/01/25 14:44:11;;;;;;;;;;;;;;;;;;5076136;28;20102;-62
2023/01/25 14:46:37;;;;;;;;;;;;;;;;;;5081105;28;20619;-62
2023/01/25 14:49:03;;;;;;;;;;;;;;;;;;5081702;28;19916;-61
2023/01/25 14:51:29;;;;;;;;;;;;;;;;;;5084138;28;20589;-61
2023/01/25 14:53:55;;;;;;;;;;;;;;;;;;5076853;28;19912;-61
2023/01/25 14:56:21;;;;;;;;;;;;;;;;;;5079707;28;19951;-61
2023/01/25 14:58:47;;;;;;;;;;;;;;;;;;5080254;28;19959;-61
2023/01/25 15:01:13;;;;;;;;;;;;;;;;;;5083029;28;19920;-61
2023/01/25 15:03:39;;;;;;;;;;;;;;;;;;5084895;28;20008;-62
2023/01/25 15:06:05;;;;;;;;;;;;;;;;;;5083005;28;19912;-61
2023/01/25 15:08:31;;;;;;;;;;;;;;;;;;5085198;28;19920;-61
2023/01/25 15:10:57;;;;;;;;;;;;;;;;;;5081540;28;20046;-62
2023/01/25 15:13:23;;;;;;;;;;;;;;;;;;5081579;28;19969;-63
2023/01/25 15:15:48;;;;;;;;;;;;;;;;;;5077043;28;19989;-61
2023/01/25 15:18:14;;;;;;;;;;;;;;;;;;5082460;28;19943;-62
2023/01/25 15:20:40;;;;;;;;;;;;;;;;;;5079357;28;20436;-62
2023/01/25 15:23:06;;;;;;;;;;;;;;;;;;5081965;28;19920;-61
2023/01/25 15:25:32;;;;;;;;;;;;;;;;;;5074910;28;20015;-62
2023/01/25 15:27:58;;;;;;;;;;;;;;;;;;5079075;28;19939;-61
2023/01/25 15:30:24;;;;;;;;;;;;;;;;;;5075394;28;19958;-62
2023/01/25 15:32:50;;;;;;;;;;;;;;;;;;5083659;28;20230;-62
2023/01/25 15:35:17;;;;;;;;;;;;;;;;;;5076635;28;19916;-61
2023/01/25 15:37:43;;;;;;;;;;;;;;;;;;5079675;28;20022;-62
2023/01/25 15:40:09;;;;;;;;;;;;;;;;;;5074795;28;20359;-62
2023/01/25 15:42:35;;;;;;;;;;;;;;;;;;5077807;28;19969;-62
2023/01/25 15:45:02;;;;;;;;;;;;;;;;;;5083739;28;20002;-61
2023/01/25 15:47:28;;;;;;;;;;;;;;;;;;5076463;28;19928;-61
2023/01/25 15:49:54;;;;;;;;;;;;;;;;;;5080408;28;19916;-60
2023/01/25 15:52:20;;;;;;;;;;;;;;;;;;5075026;28;19912;-63
2023/01/25 15:54:46;;;;;;;;;;;;;;;;;;5078319;28;19912;-62
2023/01/25 15:57:12;;;;;;;;;;;;;;;;;;5061521;28;19916;-63
2023/01/25 15:59:38;;;;;;;;;;;;;;;;;;5080946;28;20014;-61
2023/01/25 16:02:04;;;;;;;;;;;;;;;;;;5073632;28;19973;-61
2023/01/25 16:04:30;;;;;;;;;;;;;;;;;;5079981;28;19940;-61
2023/01/25 16:06:56;;;;;;;;;;;;;;;;;;5078936;28;19947;-63
2023/01/25 16:09:22;;;;;;;;;;;;;;;;;;5079450;28;19924;-62
2023/01/25 16:11:49;;;;;;;;;;;;;;;;;;5073257;28;20334;-62
2023/01/25 16:14:15;;;;;;;;;;;;;;;;;;5078052;28;19917;-63
2023/01/25 16:16:41;;;;;;;;;;;;;;;;;;5072574;28;19931;-62
2023/01/25 16:19:07;;;;;;;;;;;;;;;;;;5077254;28;19920;-62
2023/01/25 16:21:33;;;;;;;;;;;;;;;;;;5079332;28;20467;-62
2023/01/25 16:23:59;;;;;;;;;;;;;;;;;;5078862;28;20250;-62
2023/01/25 16:26:25;;;;;;;;;;;;;;;;;;5074608;28;20380;-58
2023/01/25 16:28:51;;;;;;;;;;;;;;;;;;5075916;28;19917;-62
2023/01/25 16:31:16;;;;;;;;;;;;;;;;;;5078602;28;19962;-62
2023/01/25 16:33:43;;;;;;;;;;;;;;;;;;5073943;28;19916;-61
2023/01/25 16:36:09;;;;;;;;;;;;;;;;;;5077934;28;19989;-62
2023/01/25 16:38:35;;;;;;;;;;;;;;;;;;5077587;28;20011;-62